createdAt,value
2023-08-15T00:00:57.953Z,96925.94
2023-08-15T00:01:59.735Z,96919.53
2023-08-15T00:03:01.524Z,96923.78
2023-08-15T00:04:03.683Z,96922.19
2023-08-15T00:05:05.825Z,96923.25
2023-08-15T00:06:07.784Z,96918.22
2023-08-15T00:07:09.628Z,96929.38
2023-08-15T00:08:11.348Z,96928.84
2023-08-15T00:09:13.136Z,96928.06
2023-08-15T00:10:14.939Z,96930.22
2023-08-15T00:11:16.797Z,96930.22
2023-08-15T00:12:18.618Z,96923.28
2023-08-15T00:13:20.485Z,96918.78
2023-08-15T00:14:22.825Z,96921.72
2023-08-15T00:15:24.590Z,96935.81
2023-08-15T00:16:26.457Z,96929.69
2023-08-15T00:17:28.200Z,96934.50
2023-08-15T00:18:29.979Z,96935.84
2023-08-15T00:19:31.792Z,96932.16
2023-08-15T00:20:33.680Z,96928.69
2023-08-15T00:21:35.723Z,96926.03
2023-08-15T00:22:37.626Z,96926.84
2023-08-15T00:23:39.622Z,96923.13
2023-08-15T00:24:41.681Z,96923.38
2023-08-15T00:25:44.034Z,96922.34
2023-08-15T00:26:45.715Z,96923.44
2023-08-15T00:27:47.744Z,96921.06
2023-08-15T00:28:49.641Z,96919.19
2023-08-15T00:29:51.645Z,96919.69
2023-08-15T00:30:53.500Z,96918.91
2023-08-15T00:31:55.282Z,96920.25
2023-08-15T00:32:57.577Z,96913.34
2023-08-15T00:33:59.318Z,96924.75
2023-08-15T00:35:01.143Z,96926.38
2023-08-15T00:36:04.571Z,96919.44
2023-08-15T00:37:06.397Z,96920.81
2023-08-15T00:38:08.215Z,96920.28
2023-08-15T00:39:10.286Z,96926.69
2023-08-15T00:40:12.306Z,96924.03
2023-08-15T00:41:14.416Z,96921.38
2023-08-15T00:43:20.443Z,96924.56
2023-08-15T00:44:22.236Z,96921.06
2023-08-15T00:45:24.024Z,96917.13
2023-08-15T00:46:29.554Z,96921.38
2023-08-15T00:48:34.252Z,96920.84
2023-08-15T00:49:36.036Z,96917.13
2023-08-15T00:51:40.228Z,96920.03
2023-08-15T00:52:42.322Z,96916.09
2023-08-15T00:53:44.423Z,96919.81
2023-08-15T00:54:50.595Z,96914.00
2023-08-15T00:55:53.408Z,96918.78
2023-08-15T00:56:55.305Z,96921.72
2023-08-15T00:57:57.211Z,96920.91
2023-08-15T00:58:59.014Z,96910.56
2023-08-15T01:00:00.896Z,96915.38
2023-08-15T01:01:03.163Z,96910.31
2023-08-15T01:02:05.115Z,96910.56
2023-08-15T01:03:07.384Z,96908.72
2023-08-15T01:04:09.702Z,96916.44
2023-08-15T01:05:12.374Z,96916.16
2023-08-15T01:06:14.219Z,96902.59
2023-08-15T01:07:19.713Z,96909.78
2023-08-15T01:08:21.772Z,96915.09
2023-08-15T01:09:23.521Z,96907.38
2023-08-15T01:10:25.399Z,96913.50
2023-08-15T01:11:33.698Z,96910.84
2023-08-15T01:12:54.407Z,96907.66
2023-08-15T01:14:05.964Z,96913.28
2023-08-15T01:15:10.487Z,96914.59
2023-08-15T01:16:15.064Z,96913.03
2023-08-15T01:17:19.513Z,96913.28
2023-08-15T01:18:28.303Z,96915.69
2023-08-15T01:19:35.226Z,96915.16
2023-08-15T01:20:38.536Z,96911.72
2023-08-15T01:21:42.929Z,96919.69
2023-08-15T01:22:45.346Z,96911.41
2023-08-15T01:23:48.278Z,96908.75
2023-08-15T01:24:50.131Z,96906.09
2023-08-15T01:25:55.013Z,96911.41
2023-08-15T01:26:56.783Z,96904.53
2023-08-15T01:27:58.627Z,96910.63
2023-08-15T01:29:00.365Z,96912.25
2023-08-15T01:30:02.253Z,96926.84
2023-08-15T01:31:13.738Z,96917.06
2023-08-15T01:32:30.304Z,96912.53
2023-08-15T01:33:40.914Z,96913.03
2023-08-15T01:34:47.787Z,96917.84
2023-08-15T01:35:51.189Z,96916.25
2023-08-15T01:36:55.815Z,96916.00
2023-08-15T01:38:02.970Z,96910.69
2023-08-15T01:39:06.296Z,96911.78
2023-08-15T01:40:11.037Z,96908.59
2023-08-15T01:41:17.659Z,96916.59
2023-08-15T01:42:22.087Z,96913.16
2023-08-15T01:43:24.178Z,96907.03
2023-08-15T01:44:26.746Z,96905.97
2023-08-15T01:45:29.544Z,96914.72
2023-08-15T01:46:31.475Z,96903.03
2023-08-15T01:47:36.136Z,96908.88
2023-08-15T01:48:43.983Z,96907.78
2023-08-15T01:49:45.713Z,96909.66
2023-08-15T01:50:47.458Z,96909.66
2023-08-15T01:51:49.207Z,96907.78
2023-08-15T01:52:51.248Z,96914.19
2023-08-15T01:53:53.123Z,96901.97
2023-08-15T01:54:54.913Z,96905.69
2023-08-15T01:55:56.688Z,96902.22
2023-08-15T01:56:58.578Z,96899.88
2023-08-15T01:58:00.370Z,96895.88
2023-08-15T01:59:02.127Z,96902.53
2023-08-15T02:00:04.524Z,96898.31
2023-08-15T02:01:06.471Z,96906.53
2023-08-15T02:02:08.287Z,96898.31
2023-08-15T02:03:10.213Z,96896.50
2023-08-15T02:04:11.885Z,96901.56
2023-08-15T02:05:14.728Z,96911.13
2023-08-15T02:06:16.564Z,96907.41
2023-08-15T02:07:18.698Z,96909.00
2023-08-15T02:08:22.084Z,96908.47
2023-08-15T02:09:23.909Z,96896.81
2023-08-15T02:10:26.220Z,96898.94
2023-08-15T02:11:28.079Z,96903.16
2023-08-15T02:12:29.758Z,96902.38
2023-08-15T02:13:35.115Z,96902.38
2023-08-15T02:14:37.095Z,96897.88
2023-08-15T02:15:39.004Z,96898.66
2023-08-15T02:16:40.998Z,96901.59
2023-08-15T02:17:43.188Z,96894.69
2023-08-15T02:18:45.177Z,96896.81
2023-08-15T02:19:47.121Z,96894.44
2023-08-15T02:20:48.850Z,96892.56
2023-08-15T02:21:50.624Z,96889.13
2023-08-15T02:22:52.653Z,96891.00
2023-08-15T02:23:54.427Z,96900.31
2023-08-15T02:24:56.144Z,96900.56
2023-08-15T02:25:58.010Z,96900.03
2023-08-15T02:26:59.837Z,96897.41
2023-08-15T02:28:01.704Z,96896.88
2023-08-15T02:29:04.945Z,96892.38
2023-08-15T02:30:07.175Z,96900.06
2023-08-15T02:31:11.666Z,96898.47
2023-08-15T02:32:13.614Z,96893.16
2023-08-15T02:33:15.288Z,96901.13
2023-08-15T02:34:18.023Z,96898.22
2023-08-15T02:35:19.869Z,96896.34
2023-08-15T02:36:22.758Z,96893.69
2023-08-15T02:37:24.489Z,96893.97
2023-08-15T02:38:26.399Z,96898.75
2023-08-15T02:39:28.178Z,96892.66
2023-08-15T02:40:29.896Z,96894.78
2023-08-15T02:41:31.606Z,96898.50
2023-08-15T02:42:34.288Z,96897.69
2023-08-15T02:43:36.198Z,96890.00
2023-08-15T02:44:38.139Z,96893.47
2023-08-15T02:45:39.958Z,96899.84
2023-08-15T02:46:41.853Z,96897.19
2023-08-15T02:47:43.744Z,96892.66
2023-08-15T02:48:45.715Z,96892.66
2023-08-15T02:49:47.502Z,96889.22
2023-08-15T02:50:49.420Z,96893.75
2023-08-15T02:51:51.212Z,96898.25
2023-08-15T02:52:53.021Z,96888.44
2023-08-15T02:53:54.753Z,96890.00
2023-08-15T02:54:56.547Z,96893.75
2023-08-15T02:55:58.311Z,96887.34
2023-08-15T02:57:00.048Z,96891.31
2023-08-15T02:58:02.073Z,96896.63
2023-08-15T02:59:03.893Z,96897.97
2023-08-15T03:00:06.268Z,96898.25
2023-08-15T03:01:08.666Z,96899.31
2023-08-15T03:02:11.363Z,96892.41
2023-08-15T03:03:13.240Z,96900.09
2023-08-15T03:04:15.033Z,96896.38
2023-08-15T03:05:16.722Z,96891.06
2023-08-15T03:06:19.242Z,96894.78
2023-08-15T03:07:21.224Z,96903.03
2023-08-15T03:08:23.270Z,96895.31
2023-08-15T03:09:25.097Z,96901.72
2023-08-15T03:10:26.981Z,96899.59
2023-08-15T03:11:30.818Z,96903.84
2023-08-15T03:12:32.740Z,96899.63
2023-08-15T03:13:34.742Z,96899.06
2023-08-15T03:14:36.802Z,96892.72
2023-08-15T03:15:39.198Z,96903.84
2023-08-15T03:16:41.302Z,96899.31
2023-08-15T03:17:44.191Z,96899.06
2023-08-15T03:18:46.179Z,96901.72
2023-08-15T03:19:48.162Z,96898.00
2023-08-15T03:21:00.690Z,96900.66
2023-08-15T03:22:02.698Z,96900.16
2023-08-15T03:23:04.847Z,96904.66
2023-08-15T03:24:07.159Z,96895.09
2023-08-15T03:25:09.584Z,96891.66
2023-08-15T03:26:11.507Z,96898.56
2023-08-15T03:27:13.567Z,96898.28
2023-08-15T03:28:15.475Z,96898.00
2023-08-15T03:29:17.425Z,96898.81
2023-08-15T03:30:19.500Z,96902.28
2023-08-15T03:31:22.705Z,96896.16
2023-08-15T03:32:24.670Z,96893.78
2023-08-15T03:33:27.261Z,96902.78
2023-08-15T03:34:29.301Z,96901.22
2023-08-15T03:35:31.574Z,96906.28
2023-08-15T03:36:33.324Z,96909.97
2023-08-15T03:37:36.840Z,96900.69
2023-08-15T03:38:38.816Z,96912.09
2023-08-15T03:39:40.756Z,96909.22
2023-08-15T03:40:43.344Z,96908.69
2023-08-15T03:41:46.574Z,96912.91
2023-08-15T03:42:48.561Z,96907.09
2023-08-15T03:43:50.619Z,96913.19
2023-08-15T03:44:52.628Z,96905.50
2023-08-15T03:45:54.621Z,96901.78
2023-08-15T03:46:56.649Z,96902.31
2023-08-15T03:47:58.627Z,96904.44
2023-08-15T03:49:00.654Z,96909.22
2023-08-15T03:50:03.271Z,96912.13
2023-08-15T03:51:05.565Z,96907.13
2023-08-15T03:52:07.525Z,96910.81
2023-08-15T03:53:10.950Z,96908.94
2023-08-15T03:54:13.168Z,96917.19
2023-08-15T03:55:15.226Z,96914.28
2023-08-15T03:56:17.114Z,96910.03
2023-08-15T03:57:19.392Z,96918.25
2023-08-15T03:58:22.880Z,96917.47
2023-08-15T03:59:24.922Z,96911.38
2023-08-15T04:00:26.965Z,96916.41
2023-08-15T04:01:28.982Z,96916.41
2023-08-15T04:02:30.957Z,96914.00
2023-08-15T04:03:33.015Z,96916.66
2023-08-15T04:04:34.900Z,96920.38
2023-08-15T04:05:36.798Z,96917.47
2023-08-15T04:06:38.674Z,96917.47
2023-08-15T04:07:40.952Z,96921.97
2023-08-15T04:08:42.743Z,96922.50
2023-08-15T04:09:44.845Z,96923.84
2023-08-15T04:10:47.313Z,96917.75
2023-08-15T04:11:49.086Z,96926.75
2023-08-15T04:12:50.847Z,96917.75
2023-08-15T04:13:52.555Z,96929.94
2023-08-15T04:14:54.481Z,96923.31
2023-08-15T04:15:56.598Z,96925.69
2023-08-15T04:16:58.470Z,96927.56
2023-08-15T04:18:00.213Z,96929.94
2023-08-15T04:19:02.269Z,96933.09
2023-08-15T04:20:08.628Z,96928.88
2023-08-15T04:21:12.647Z,96929.41
2023-08-15T04:22:14.609Z,96929.41
2023-08-15T04:23:16.309Z,96931.53
2023-08-15T04:24:20.490Z,96933.13
2023-08-15T04:25:22.290Z,96929.41
2023-08-15T04:26:24.171Z,96927.56
2023-08-15T04:27:25.812Z,96935.50
2023-08-15T04:28:27.823Z,96931.00
2023-08-15T04:29:29.529Z,96936.03
2023-08-15T04:30:31.946Z,96933.66
2023-08-15T04:31:33.867Z,96932.31
2023-08-15T04:32:35.795Z,96928.09
2023-08-15T04:33:37.684Z,96929.94
2023-08-15T04:34:39.405Z,96928.63
2023-08-15T04:35:41.181Z,96927.56
2023-08-15T04:36:46.145Z,96933.66
2023-08-15T04:37:47.941Z,96931.00
2023-08-15T04:38:49.692Z,96924.63
2023-08-15T04:39:52.303Z,96929.16
2023-08-15T04:40:55.978Z,96924.63
2023-08-15T04:41:59.124Z,96929.94
2023-08-15T04:43:01.535Z,96930.50
2023-08-15T04:44:03.792Z,96928.88
2023-08-15T04:45:05.788Z,96920.94
2023-08-15T04:46:07.584Z,96926.25
2023-08-15T04:47:09.373Z,96925.44
2023-08-15T04:48:11.686Z,96922.00
2023-08-15T04:49:13.797Z,96926.25
2023-08-15T04:50:15.938Z,96924.38
2023-08-15T04:51:17.827Z,96928.63
2023-08-15T04:52:19.627Z,96925.19
2023-08-15T04:53:21.385Z,96924.66
2023-08-15T04:54:23.031Z,96924.13
2023-08-15T04:55:24.842Z,96931.28
2023-08-15T04:56:26.697Z,96924.66
2023-08-15T04:57:28.533Z,96931.78
2023-08-15T04:58:30.713Z,96925.41
2023-08-15T04:59:32.488Z,96931.56
2023-08-15T05:00:35.523Z,96926.25
2023-08-15T05:01:37.653Z,96933.13
2023-08-15T05:02:40.451Z,96932.34
2023-08-15T05:03:42.306Z,96927.03
2023-08-15T05:04:44.003Z,96930.47
2023-08-15T05:05:45.812Z,96926.47
2023-08-15T05:06:47.630Z,96926.47
2023-08-15T05:07:49.524Z,96928.06
2023-08-15T05:08:51.307Z,96928.06
2023-08-15T05:09:53.108Z,96929.41
2023-08-15T05:10:55.712Z,96919.84
2023-08-15T05:11:57.913Z,96929.94
2023-08-15T05:13:00.603Z,96928.06
2023-08-15T05:14:02.344Z,96936.03
2023-08-15T05:15:04.438Z,96932.03
2023-08-15T05:16:06.334Z,96930.47
2023-08-15T05:17:08.119Z,96941.06
2023-08-15T05:18:11.397Z,96930.72
2023-08-15T05:19:13.181Z,96935.78
2023-08-15T05:20:16.109Z,96937.06
2023-08-15T05:21:17.845Z,96944.78
2023-08-15T05:22:20.852Z,96946.63
2023-08-15T05:23:22.787Z,96947.44
2023-08-15T05:24:26.596Z,96941.59
2023-08-15T05:25:28.441Z,96941.59
2023-08-15T05:26:30.144Z,96946.63
2023-08-15T05:27:31.894Z,96943.97
2023-08-15T05:28:34.026Z,96950.34
2023-08-15T05:29:35.759Z,96951.13
2023-08-15T05:30:38.064Z,96950.88
2023-08-15T05:31:39.841Z,96942.91
2023-08-15T05:32:41.730Z,96938.41
2023-08-15T05:33:43.568Z,96939.47
2023-08-15T05:34:45.357Z,96937.63
2023-08-15T05:35:47.144Z,96943.69
2023-08-15T05:36:48.955Z,96942.91
2023-08-15T05:37:50.792Z,96934.19
2023-08-15T05:38:52.675Z,96943.69
2023-08-15T05:39:54.601Z,96942.91
2023-08-15T05:40:56.400Z,96939.47
2023-08-15T05:41:58.181Z,96940.53
2023-08-15T05:43:00.660Z,96936.03
2023-08-15T05:44:02.780Z,96940.53
2023-08-15T05:45:05.088Z,96939.47
2023-08-15T05:46:06.942Z,96943.72
2023-08-15T05:47:09.030Z,96943.19
2023-08-15T05:48:12.387Z,96946.38
2023-08-15T05:49:14.663Z,96949.03
2023-08-15T05:50:16.653Z,96949.28
2023-08-15T05:51:19.980Z,96949.28
2023-08-15T05:52:21.909Z,96946.88
2023-08-15T05:53:23.659Z,96948.50
2023-08-15T05:54:25.457Z,96946.88
2023-08-15T05:55:27.344Z,96943.19
2023-08-15T05:56:29.131Z,96951.66
2023-08-15T05:57:30.993Z,96951.94
2023-08-15T05:58:32.947Z,96947.94
2023-08-15T05:59:34.915Z,96949.56
2023-08-15T06:00:39.301Z,96942.13
2023-08-15T06:01:41.810Z,96947.44
2023-08-15T06:02:43.669Z,96940.00
2023-08-15T06:03:52.690Z,96938.94
2023-08-15T06:04:55.486Z,96943.19
2023-08-15T06:05:57.761Z,96949.81
2023-08-15T06:06:59.611Z,96943.72
2023-08-15T06:08:01.428Z,96942.16
2023-08-15T06:09:03.339Z,96945.88
2023-08-15T06:10:05.421Z,96940.81
2023-08-15T06:11:07.270Z,96945.34
2023-08-15T06:12:09.185Z,96946.41
2023-08-15T06:13:11.013Z,96935.25
2023-08-15T06:14:12.774Z,96946.91
2023-08-15T06:15:15.450Z,96940.28
2023-08-15T06:16:17.221Z,96937.09
2023-08-15T06:17:20.420Z,96943.72
2023-08-15T06:18:22.397Z,96948.50
2023-08-15T06:19:24.344Z,96942.66
2023-08-15T06:20:26.364Z,96943.72
2023-08-15T06:21:28.117Z,96944.25
2023-08-15T06:22:29.879Z,96941.06
2023-08-15T06:23:31.676Z,96936.81
2023-08-15T06:24:33.542Z,96942.91
2023-08-15T06:25:36.023Z,96942.34
2023-08-15T06:26:37.892Z,96934.91
2023-08-15T06:27:39.670Z,96939.44
2023-08-15T06:28:41.406Z,96942.31
2023-08-15T06:29:43.518Z,96939.41
2023-08-15T06:30:45.539Z,96953.72
2023-08-15T06:31:47.346Z,96933.53
2023-08-15T06:32:49.169Z,96943.63
2023-08-15T06:33:50.931Z,96945.75
2023-08-15T06:34:52.642Z,96944.16
2023-08-15T06:35:54.466Z,96944.66
2023-08-15T06:36:56.983Z,96944.94
2023-08-15T06:37:59.092Z,96947.31
2023-08-15T06:39:01.748Z,96943.59
2023-08-15T06:40:04.756Z,96938.81
2023-08-15T06:41:08.192Z,96950.47
2023-08-15T06:42:12.167Z,96943.03
2023-08-15T06:43:14.157Z,96946.75
2023-08-15T06:44:16.143Z,96946.47
2023-08-15T06:45:18.445Z,96938.75
2023-08-15T06:46:20.454Z,96945.09
2023-08-15T06:47:22.536Z,96946.41
2023-08-15T06:48:24.597Z,96952.75
2023-08-15T06:49:26.321Z,96942.38
2023-08-15T06:50:28.199Z,96956.72
2023-08-15T06:51:30.051Z,96942.91
2023-08-15T06:52:32.367Z,96951.41
2023-08-15T06:53:34.861Z,96946.03
2023-08-15T06:54:37.867Z,96949.22
2023-08-15T06:55:39.707Z,96951.84
2023-08-15T06:56:41.600Z,96949.44
2023-08-15T06:57:44.096Z,96942.78
2023-08-15T06:58:45.966Z,96948.34
2023-08-15T06:59:47.824Z,96950.19
2023-08-15T07:00:49.713Z,96945.13
2023-08-15T07:01:54.042Z,96943.50
2023-08-15T07:02:55.843Z,96945.34
2023-08-15T07:03:58.088Z,96944.78
2023-08-15T07:04:59.876Z,96935.19
2023-08-15T07:06:02.128Z,96949.50
2023-08-15T07:07:04.413Z,96948.94
2023-08-15T07:08:06.822Z,96940.13
2023-08-15T07:09:08.925Z,96950.75
2023-08-15T07:10:11.841Z,96950.16
2023-08-15T07:11:13.871Z,96954.69
2023-08-15T07:12:19.774Z,96945.34
2023-08-15T07:13:22.158Z,96946.38
2023-08-15T07:14:27.282Z,96951.66
2023-08-15T07:15:29.503Z,96942.31
2023-08-15T07:16:31.475Z,96942.56
2023-08-15T07:17:33.661Z,96945.44
2023-08-15T07:18:35.765Z,96941.72
2023-08-15T07:19:37.863Z,96941.13
2023-08-15T07:20:40.654Z,96947.50
2023-08-15T07:21:42.935Z,96948.56
2023-08-15T07:22:45.608Z,96937.34
2023-08-15T07:23:47.563Z,96946.06
2023-08-15T07:24:49.598Z,96947.88
2023-08-15T07:25:51.612Z,96945.72
2023-08-15T07:26:53.760Z,96950.50
2023-08-15T07:27:55.660Z,96952.59
2023-08-15T07:28:58.033Z,96949.38
2023-08-15T07:30:00.160Z,96943.47
2023-08-15T07:31:02.075Z,96951.69
2023-08-15T07:32:04.325Z,96948.16
2023-08-15T07:33:07.896Z,96952.38
2023-08-15T07:34:09.674Z,96948.38
2023-08-15T07:35:11.550Z,96953.09
2023-08-15T07:36:13.637Z,96956.50
2023-08-15T07:37:16.999Z,96953.25
2023-08-15T07:38:19.266Z,96956.16
2023-08-15T07:39:21.334Z,96953.72
2023-08-15T07:40:23.866Z,96952.34
2023-08-15T07:41:25.798Z,96957.13
2023-08-15T07:42:30.572Z,96955.47
2023-08-15T07:43:32.853Z,96955.75
2023-08-15T07:44:34.684Z,96960.47
2023-08-15T07:45:36.769Z,96959.94
2023-08-15T07:46:39.014Z,96953.22
2023-08-15T07:47:41.089Z,96957.19
2023-08-15T07:48:44.461Z,96955.03
2023-08-15T07:49:46.372Z,96951.50
2023-08-15T07:50:48.376Z,96966.13
2023-08-15T07:51:50.344Z,96950.38
2023-08-15T07:52:52.364Z,96948.19
2023-08-15T07:53:54.290Z,96952.66
2023-08-15T07:54:56.197Z,96959.28
2023-08-15T07:55:59.103Z,96953.41
2023-08-15T07:57:01.064Z,96950.63
2023-08-15T07:58:03.104Z,96951.66
2023-08-15T07:59:05.303Z,96943.88
2023-08-15T08:00:08.621Z,96955.53
2023-08-15T08:01:10.727Z,96949.91
2023-08-15T08:02:12.596Z,96959.44
2023-08-15T08:03:14.576Z,96952.72
2023-08-15T08:04:16.545Z,96948.38
2023-08-15T08:05:18.529Z,96953.97
2023-08-15T08:06:37.765Z,96953.38
2023-08-15T08:07:43.432Z,96955.19
2023-08-15T08:08:45.546Z,96953.53
2023-08-15T08:09:47.583Z,96953.16
2023-08-15T08:10:49.468Z,96958.41
2023-08-15T08:11:51.473Z,96951.69
2023-08-15T08:12:53.466Z,96956.44
2023-08-15T08:13:55.676Z,96956.63
2023-08-15T08:15:01.125Z,96954.97
2023-08-15T08:16:04.309Z,96947.75
2023-08-15T08:17:06.398Z,96952.50
2023-08-15T08:18:08.220Z,96954.91
2023-08-15T08:19:10.112Z,96949.78
2023-08-15T08:20:17.354Z,96948.66
2023-08-15T08:21:19.078Z,96946.22
2023-08-15T08:22:21.126Z,96944.53
2023-08-15T08:23:24.846Z,96945.81
2023-08-15T08:24:26.671Z,96941.75
2023-08-15T08:25:28.474Z,96955.31
2023-08-15T08:26:30.677Z,96942.47
2023-08-15T08:27:32.904Z,96951.22
2023-08-15T08:28:34.811Z,96947.66
2023-08-15T08:29:36.687Z,96947.06
2023-08-15T08:30:39.151Z,96945.69
2023-08-15T08:31:41.348Z,96946.97
2023-08-15T08:32:43.472Z,96941.03
2023-08-15T08:33:45.311Z,96944.69
2023-08-15T08:34:47.209Z,96942.03
2023-08-15T08:35:49.232Z,96944.09
2023-08-15T08:36:51.470Z,96942.72
2023-08-15T08:37:53.260Z,96940.22
2023-08-15T08:38:55.409Z,96935.88
2023-08-15T08:39:57.386Z,96927.28
2023-08-15T08:40:59.372Z,96930.94
2023-08-15T08:42:02.238Z,96935.38
2023-08-15T08:43:05.046Z,96938.25
2023-08-15T08:44:07.388Z,96925.88
2023-08-15T08:45:12.563Z,96931.41
2023-08-15T08:46:14.478Z,96930.00
2023-08-15T08:47:19.431Z,96929.44
2023-08-15T08:48:23.258Z,96933.06
2023-08-15T08:49:28.020Z,96929.03
2023-08-15T08:50:30.396Z,96923.88
2023-08-15T08:51:33.537Z,96928.63
2023-08-15T08:52:35.442Z,96924.88
2023-08-15T08:53:37.269Z,96925.34
2023-08-15T08:54:55.699Z,96930.09
2023-08-15T08:55:58.828Z,96919.88
2023-08-15T08:57:01.910Z,96921.66
2023-08-15T08:58:04.320Z,96916.00
2023-08-15T08:59:06.795Z,96922.81
2023-08-15T09:00:13.288Z,96917.16
2023-08-15T09:01:15.373Z,96924.28
2023-08-15T09:02:20.902Z,96921.00
2023-08-15T09:03:22.902Z,96924.38
2023-08-15T09:04:24.878Z,96920.19
2023-08-15T09:05:27.873Z,96924.13
2023-08-15T09:06:29.700Z,96919.56
2023-08-15T09:07:32.803Z,96915.47
2023-08-15T09:08:34.681Z,96928.25
2023-08-15T09:09:36.495Z,96924.16
2023-08-15T09:10:38.404Z,96920.91
2023-08-15T09:11:40.765Z,96923.47
2023-08-15T09:12:43.831Z,96919.41
2023-08-15T09:13:49.000Z,96926.03
2023-08-15T09:14:50.742Z,96926.22
2023-08-15T09:15:56.897Z,96921.84
2023-08-15T09:16:59.028Z,96927.03
2023-08-15T09:18:01.963Z,96924.56
2023-08-15T09:19:04.468Z,96919.06
2023-08-15T09:20:24.026Z,96916.56
2023-08-15T09:21:28.316Z,96918.94
2023-08-15T09:22:31.220Z,96921.78
2023-08-15T09:23:33.218Z,96924.66
2023-08-15T09:24:35.090Z,96921.03
2023-08-15T09:25:38.326Z,96917.44
2023-08-15T09:26:42.883Z,96914.63
2023-08-15T09:27:45.451Z,96917.63
2023-08-15T09:28:47.285Z,96918.63
2023-08-15T09:29:48.962Z,96918.31
2023-08-15T09:30:54.740Z,96917.72
2023-08-15T09:31:56.671Z,96914.41
2023-08-15T09:32:58.804Z,96914.28
2023-08-15T09:34:00.693Z,96913.66
2023-08-15T09:35:02.714Z,96913.81
2023-08-15T09:36:06.805Z,96908.31
2023-08-15T09:37:09.339Z,96912.75
2023-08-15T09:38:11.858Z,96906.75
2023-08-15T09:39:13.646Z,96914.47
2023-08-15T09:40:19.931Z,96910.06
2023-08-15T09:41:26.107Z,96913.22
2023-08-15T09:42:29.767Z,96908.03
2023-08-15T09:43:31.802Z,96908.22
2023-08-15T09:44:39.340Z,96903.81
2023-08-15T09:45:41.270Z,96909.00
2023-08-15T09:46:44.616Z,96911.84
2023-08-15T09:47:47.395Z,96906.34
2023-08-15T09:48:50.091Z,96907.00
2023-08-15T09:49:53.560Z,96907.16
2023-08-15T09:50:56.326Z,96911.56
2023-08-15T09:52:01.172Z,96911.44
2023-08-15T09:53:05.236Z,96910.78
2023-08-15T09:54:07.404Z,96907.66
2023-08-15T09:55:11.395Z,96897.84
2023-08-15T09:56:13.983Z,96900.38
2023-08-15T09:57:16.310Z,96900.69
2023-08-15T09:58:20.848Z,96897.03
2023-08-15T09:59:22.665Z,96899.56
2023-08-15T10:00:24.710Z,96902.09
2023-08-15T10:01:31.556Z,96892.00
2023-08-15T10:02:43.789Z,96900.69
2023-08-15T10:03:46.358Z,96899.09
2023-08-15T10:04:52.629Z,96897.00
2023-08-15T10:05:56.455Z,96901.09
2023-08-15T10:06:59.496Z,96904.41
2023-08-15T10:08:01.294Z,96901.25
2023-08-15T10:09:04.573Z,96899.50
2023-08-15T10:10:06.656Z,96903.56
2023-08-15T10:11:11.554Z,96899.13
2023-08-15T10:12:13.468Z,96892.81
2023-08-15T10:13:15.750Z,96891.97
2023-08-15T10:14:19.223Z,96897.97
2023-08-15T10:15:22.618Z,96890.06
2023-08-15T10:16:26.115Z,96897.91
2023-08-15T10:17:29.739Z,96891.56
2023-08-15T10:18:32.729Z,96890.25
2023-08-15T10:19:34.637Z,96886.09
2023-08-15T10:20:39.952Z,96892.84
2023-08-15T10:21:49.431Z,96895.84
2023-08-15T10:22:54.275Z,96885.81
2023-08-15T10:24:03.682Z,96886.88
2023-08-15T10:25:23.866Z,96888.13
2023-08-15T10:26:25.845Z,96886.16
2023-08-15T10:27:27.685Z,96883.25
2023-08-15T10:28:30.557Z,96879.59
2023-08-15T10:29:32.368Z,96878.59
2023-08-15T10:30:37.874Z,96876.03
2023-08-15T10:31:40.755Z,96879.78
2023-08-15T10:32:42.505Z,96881.19
2023-08-15T10:33:46.594Z,96877.94
2023-08-15T10:34:52.964Z,96886.16
2023-08-15T10:35:57.910Z,96884.00
2023-08-15T10:37:22.765Z,96877.28
2023-08-15T10:38:28.868Z,96888.31
2023-08-15T10:39:30.686Z,96879.25
2023-08-15T10:40:40.362Z,96883.28
2023-08-15T10:41:43.696Z,96876.91
2023-08-15T10:43:03.504Z,96880.53
2023-08-15T10:44:06.306Z,96880.91
2023-08-15T10:45:13.211Z,96878.91
2023-08-15T10:46:16.799Z,96875.97
2023-08-15T10:47:25.173Z,96877.75
2023-08-15T10:49:01.622Z,96874.97
2023-08-15T10:50:06.516Z,96874.06
2023-08-15T10:51:21.882Z,96876.19
2023-08-15T10:52:24.062Z,96873.06
2023-08-15T10:53:26.182Z,96875.19
2023-08-15T10:54:27.971Z,96870.34
2023-08-15T10:55:30.597Z,96881.47
2023-08-15T10:56:33.557Z,96869.66
2023-08-15T10:57:35.814Z,96870.63
2023-08-15T10:58:41.255Z,96869.97
2023-08-15T10:59:44.383Z,96877.41
2023-08-15T11:00:46.186Z,96873.22
2023-08-15T11:01:48.359Z,96874.53
2023-08-15T11:02:51.216Z,96868.00
2023-08-15T11:03:54.053Z,96869.59
2023-08-15T11:04:55.850Z,96878.16
2023-08-15T11:06:07.537Z,96871.28
2023-08-15T11:07:09.427Z,96876.00
2023-08-15T11:08:15.887Z,96876.00
2023-08-15T11:09:18.755Z,96871.94
2023-08-15T11:10:20.725Z,96877.06
2023-08-15T11:11:23.041Z,96879.53
2023-08-15T11:12:25.658Z,96877.97
2023-08-15T11:13:27.821Z,96871.69
2023-08-15T11:14:29.619Z,96873.25
2023-08-15T11:15:32.404Z,96874.25
2023-08-15T11:16:34.748Z,96875.56
2023-08-15T11:17:36.658Z,96866.09
2023-08-15T11:18:38.570Z,96875.50
2023-08-15T11:19:40.814Z,96864.00
2023-08-15T11:20:42.698Z,96871.19
2023-08-15T11:21:44.682Z,96872.59
2023-08-15T11:22:55.877Z,96872.00
2023-08-15T11:24:01.019Z,96862.91
2023-08-15T11:25:02.786Z,96861.56
2023-08-15T11:26:05.438Z,96875.13
2023-08-15T11:27:07.234Z,96871.31
2023-08-15T11:28:08.947Z,96867.56
2023-08-15T11:29:14.567Z,96871.13
2023-08-15T11:30:16.727Z,96868.53
2023-08-15T11:31:23.165Z,96859.47
2023-08-15T11:32:25.813Z,96860.00
2023-08-15T11:33:29.737Z,96862.78
2023-08-15T11:34:31.689Z,96861.28
2023-08-15T11:35:33.429Z,96860.22
2023-08-15T11:36:35.339Z,96860.22
2023-08-15T11:37:37.664Z,96862.59
2023-08-15T11:38:40.220Z,96853.06
2023-08-15T11:39:42.074Z,96856.22
2023-08-15T11:40:44.268Z,96852.72
2023-08-15T11:41:46.567Z,96850.88
2023-08-15T11:42:48.996Z,96845.47
2023-08-15T11:43:51.207Z,96848.66
2023-08-15T11:45:09.231Z,96849.56
2023-08-15T11:46:12.041Z,96849.25
2023-08-15T11:47:19.939Z,96847.88
2023-08-15T11:48:22.369Z,96847.19
2023-08-15T11:49:24.691Z,96842.88
2023-08-15T11:50:41.935Z,96847.94
2023-08-15T11:51:46.245Z,96846.09
2023-08-15T11:52:48.136Z,96844.53
2023-08-15T11:53:53.687Z,96843.91
2023-08-15T11:54:55.558Z,96840.22
2023-08-15T11:55:57.271Z,96832.63
2023-08-15T11:56:59.605Z,96835.84
2023-08-15T11:58:01.392Z,96838.28
2023-08-15T11:59:05.370Z,96839.19
2023-08-15T12:00:07.472Z,96833.88
2023-08-15T12:01:13.167Z,96828.94
2023-08-15T12:02:15.169Z,96834.88
2023-08-15T12:03:17.288Z,96836.56
2023-08-15T12:04:19.469Z,96829.69
2023-08-15T12:05:21.340Z,96832.47
2023-08-15T12:06:23.089Z,96826.75
2023-08-15T12:07:25.130Z,96823.34
2023-08-15T12:08:27.643Z,96826.13
2023-08-15T12:09:31.082Z,96829.69
2023-08-15T12:10:33.208Z,96827.56
2023-08-15T12:11:36.023Z,96829.69
2023-08-15T12:12:39.150Z,96822.72
2023-08-15T12:13:41.681Z,96824.72
2023-08-15T12:14:50.791Z,96820.50
2023-08-15T12:15:53.597Z,96824.78
2023-08-15T12:16:55.492Z,96822.91
2023-08-15T12:17:57.321Z,96821.41
2023-08-15T12:18:59.173Z,96822.94
2023-08-15T12:20:01.765Z,96819.03
2023-08-15T12:21:06.054Z,96820.72
2023-08-15T12:22:07.982Z,96825.09
2023-08-15T12:23:15.382Z,96818.25